createdAt,value
2018-07-07T00:03:38.996Z,81.60
2018-07-07T00:08:42.555Z,80.60
2018-07-07T00:13:46.075Z,80.40
2018-07-07T00:18:49.743Z,80.10
2018-07-07T00:28:58.469Z,80.50
2018-07-07T00:34:02.030Z,80.60
2018-07-07T00:39:05.676Z,81.30
2018-07-07T00:44:09.259Z,81.90
2018-07-07T00:49:12.857Z,81.40
2018-07-07T00:54:16.423Z,81.20
2018-07-07T00:59:20.168Z,80.90
2018-07-07T01:04:23.818Z,81.00
2018-07-07T01:09:27.381Z,81.40
2018-07-07T01:14:31.138Z,81.50
2018-07-07T01:19:34.732Z,81.00
2018-07-07T01:24:38.603Z,80.60
2018-07-07T01:29:42.747Z,81.00
2018-07-07T01:34:46.308Z,81.10
2018-07-07T01:39:49.964Z,81.10
2018-07-07T01:44:53.785Z,81.20
2018-07-07T01:49:57.383Z,81.80
2018-07-07T01:55:00.968Z,81.90
2018-07-07T02:00:04.640Z,81.80
2018-07-07T02:05:08.264Z,81.10
2018-07-07T02:15:15.092Z,80.70
2018-07-07T02:20:18.751Z,80.70
2018-07-07T02:25:22.306Z,80.30
2018-07-07T02:30:25.960Z,80.40
2018-07-07T02:35:29.526Z,80.50
2018-07-07T02:40:33.969Z,80.90
2018-07-07T02:45:37.618Z,81.40
2018-07-07T02:50:41.217Z,81.30
2018-07-07T02:55:44.896Z,81.30
2018-07-07T03:00:48.458Z,80.70
2018-07-07T03:05:51.999Z,80.90
2018-07-07T03:10:55.607Z,81.30
2018-07-07T03:15:59.228Z,81.10
2018-07-07T03:21:02.817Z,81.40
2018-07-07T03:31:09.604Z,80.90
2018-07-07T03:36:13.187Z,80.30
2018-07-07T03:41:16.749Z,80.90
2018-07-07T03:46:20.360Z,82.80
2018-07-07T03:51:23.966Z,83.30
2018-07-07T03:56:27.561Z,83.70
2018-07-07T04:01:31.168Z,83.80
2018-07-07T04:06:34.932Z,83.80
2018-07-07T04:11:38.509Z,84.00
2018-07-07T04:16:42.089Z,84.90
2018-07-07T04:21:45.661Z,84.60
2018-07-07T04:26:49.223Z,84.90
2018-07-07T04:31:52.824Z,84.90
2018-07-07T04:36:56.664Z,85.50
2018-07-07T04:42:00.259Z,86.10
2018-07-07T04:47:03.870Z,84.70
2018-07-07T04:52:07.451Z,85.00
2018-07-07T04:57:11.064Z,83.40
2018-07-07T05:02:14.944Z,82.80
2018-07-07T05:07:19.154Z,82.50
2018-07-07T05:12:22.704Z,82.30
2018-07-07T05:17:28.216Z,82.10
2018-07-07T05:22:31.759Z,82.30
2018-07-07T05:27:35.690Z,81.50
2018-07-07T05:32:39.283Z,81.40
2018-07-07T05:37:43.052Z,80.50
2018-07-07T05:42:46.645Z,80.20
2018-07-07T05:47:50.392Z,79.70
2018-07-07T05:52:53.985Z,79.50
2018-07-07T05:57:57.586Z,79.60
2018-07-07T06:03:01.164Z,78.90
2018-07-07T06:08:05.251Z,78.90
2018-07-07T06:13:08.955Z,77.70
2018-07-07T06:18:12.650Z,76.50
2018-07-07T06:23:16.248Z,75.10
2018-07-07T06:28:20.488Z,75.00
2018-07-07T06:33:24.048Z,74.40
2018-07-07T06:38:28.900Z,72.70
2018-07-07T06:43:32.505Z,73.20
2018-07-07T06:48:36.157Z,73.70
2018-07-07T06:53:39.739Z,73.10
2018-07-07T06:58:43.289Z,72.80
2018-07-07T07:03:46.885Z,71.90
2018-07-07T07:08:50.935Z,70.80
2018-07-07T07:13:54.826Z,69.90
2018-07-07T07:18:58.744Z,70.90
2018-07-07T07:24:02.317Z,69.70
2018-07-07T07:29:05.874Z,69.20
2018-07-07T07:34:09.426Z,70.60
2018-07-07T07:39:13.816Z,70.00
2018-07-07T07:44:17.379Z,71.20
2018-07-07T07:49:21.265Z,69.70
2018-07-07T07:54:24.832Z,69.50
2018-07-07T07:59:28.412Z,69.10
2018-07-07T08:04:32.321Z,68.10
2018-07-07T08:09:35.883Z,67.60
2018-07-07T08:14:39.564Z,66.60
2018-07-07T08:19:43.185Z,66.70
2018-07-07T08:24:47.106Z,66.60
2018-07-07T08:29:50.853Z,65.50
2018-07-07T08:34:54.425Z,67.30
2018-07-07T08:39:58.031Z,68.60
2018-07-07T08:45:01.593Z,69.30
2018-07-07T08:50:05.574Z,67.10
2018-07-07T08:55:09.192Z,66.00
2018-07-07T09:00:13.103Z,66.40
2018-07-07T09:05:16.635Z,65.30
2018-07-07T09:10:40.186Z,64.00
2018-07-07T09:15:44.812Z,63.40
2018-07-07T09:20:49.380Z,63.30
2018-07-07T09:25:52.977Z,60.70
2018-07-07T09:30:56.595Z,59.80
2018-07-07T09:36:00.247Z,57.00
2018-07-07T09:41:03.838Z,57.30
2018-07-07T09:46:07.742Z,55.70
2018-07-07T09:51:11.856Z,55.00
2018-07-07T09:56:15.432Z,55.90
2018-07-07T10:01:19.105Z,54.50
2018-07-07T10:06:22.740Z,54.20
2018-07-07T10:11:26.388Z,54.20
2018-07-07T10:16:29.947Z,54.80
2018-07-07T10:21:33.544Z,53.20
2018-07-07T10:26:38.155Z,47.70
2018-07-07T10:36:45.325Z,45.40
2018-07-07T10:41:48.839Z,45.60
2018-07-07T10:46:52.496Z,43.20
2018-07-07T10:51:56.561Z,44.30
2018-07-07T10:57:00.185Z,43.30
2018-07-07T11:02:03.808Z,42.80
2018-07-07T11:07:07.423Z,41.50
2018-07-07T11:12:12.895Z,40.80
2018-07-07T11:17:16.442Z,39.60
2018-07-07T11:22:19.971Z,41.90
2018-07-07T11:27:23.896Z,41.50
2018-07-07T11:32:27.459Z,41.10
2018-07-07T11:37:31.222Z,41.40
2018-07-07T11:42:34.997Z,39.40
2018-07-07T11:47:39.162Z,39.40
2018-07-07T11:52:43.076Z,38.20
2018-07-07T11:57:46.653Z,38.20
2018-07-07T12:02:50.363Z,38.30
2018-07-07T12:08:00.831Z,37.10
2018-07-07T12:12:57.923Z,37.50
2018-07-07T12:18:01.980Z,37.60
2018-07-07T12:23:06.351Z,37.40
2018-07-07T12:28:25.800Z,37.20
2018-07-07T12:33:30.020Z,38.80
2018-07-07T12:38:33.842Z,35.10
2018-07-07T12:43:37.466Z,33.00
2018-07-07T12:48:41.007Z,32.10
2018-07-07T12:53:44.565Z,32.90
2018-07-07T12:58:48.140Z,33.00
2018-07-07T13:03:51.696Z,34.00
2018-07-07T13:08:55.285Z,32.70
2018-07-07T13:13:58.848Z,32.00
2018-07-07T13:19:02.556Z,35.30
2018-07-07T13:24:06.446Z,32.30
2018-07-07T13:29:10.005Z,31.60
2018-07-07T13:34:13.555Z,33.70
2018-07-07T13:39:17.502Z,33.80
2018-07-07T13:44:21.040Z,33.80
2018-07-07T13:49:24.702Z,32.80
2018-07-07T13:54:28.277Z,31.70
2018-07-07T14:04:35.065Z,31.00
2018-07-07T14:09:40.563Z,31.70
2018-07-07T14:14:44.175Z,31.10
2018-07-07T14:19:47.768Z,31.30
2018-07-07T14:24:51.339Z,33.50
2018-07-07T14:29:54.928Z,34.10
2018-07-07T14:34:58.871Z,33.10
2018-07-07T14:40:02.489Z,32.50
2018-07-07T14:45:12.187Z,30.50
2018-07-07T14:50:16.620Z,31.10
2018-07-07T14:55:24.619Z,32.80
2018-07-07T15:01:31.782Z,33.10
2018-07-07T15:06:35.656Z,33.50
2018-07-07T15:11:39.258Z,34.80
2018-07-07T15:16:46.445Z,35.70
2018-07-07T15:21:49.993Z,33.80
2018-07-07T15:26:53.535Z,33.00
2018-07-07T15:31:57.328Z,31.90
2018-07-07T15:37:01.013Z,31.30
2018-07-07T15:42:04.577Z,31.10
2018-07-07T15:47:08.634Z,30.70
2018-07-07T15:52:14.168Z,31.60
2018-07-07T15:57:17.860Z,30.10
2018-07-07T16:02:21.445Z,30.80
2018-07-07T16:07:25.030Z,29.80
2018-07-07T16:12:28.634Z,30.10
2018-07-07T16:17:32.159Z,30.20
2018-07-07T16:22:36.077Z,33.30
2018-07-07T16:27:41.168Z,33.90
2018-07-07T16:32:44.731Z,34.10
2018-07-07T16:37:48.335Z,35.40
2018-07-07T16:42:51.940Z,34.90
2018-07-07T16:47:55.762Z,34.30
2018-07-07T16:53:00.105Z,33.30
2018-07-07T16:58:04.285Z,34.40
2018-07-07T17:03:08.620Z,34.80
2018-07-07T17:08:12.562Z,33.10
2018-07-07T17:13:18.741Z,30.30
2018-07-07T17:18:23.013Z,32.50
2018-07-07T17:23:26.635Z,30.90
2018-07-07T17:28:30.332Z,32.80
2018-07-07T17:38:37.599Z,32.60
2018-07-07T17:43:41.572Z,33.70
2018-07-07T17:48:45.470Z,35.70
2018-07-07T17:53:49.868Z,36.20
2018-07-07T17:58:53.767Z,35.30
2018-07-07T18:03:58.001Z,36.10
2018-07-07T18:09:01.579Z,35.20
2018-07-07T18:14:05.462Z,36.50
2018-07-07T18:19:09.095Z,36.90
2018-07-07T18:24:12.633Z,36.50
2018-07-07T18:29:16.195Z,36.80
2018-07-07T18:34:20.616Z,36.70
2018-07-07T18:39:24.305Z,35.80
2018-07-07T18:44:27.906Z,35.70
2018-07-07T18:49:31.776Z,36.20
2018-07-07T18:54:35.320Z,37.70
2018-07-07T18:59:39.080Z,40.40
2018-07-07T19:04:42.623Z,41.20
2018-07-07T19:09:46.931Z,41.90
2018-07-07T19:14:50.851Z,42.40
2018-07-07T19:19:54.423Z,42.90
2018-07-07T19:25:03.385Z,43.40
2018-07-07T19:30:07.031Z,44.60
2018-07-07T19:35:15.984Z,44.90
2018-07-07T19:40:20.211Z,44.70
2018-07-07T19:45:23.853Z,44.80
2018-07-07T19:50:27.620Z,46.10
2018-07-07T19:55:31.843Z,47.30
2018-07-07T20:00:35.405Z,48.80
2018-07-07T20:05:38.979Z,49.30
2018-07-07T20:10:42.561Z,49.30
2018-07-07T20:16:16.040Z,49.90
2018-07-07T20:21:36.221Z,50.10
2018-07-07T20:26:43.984Z,50.90
2018-07-07T20:31:48.485Z,50.20
2018-07-07T20:36:52.652Z,50.10
2018-07-07T20:41:56.224Z,50.30
2018-07-07T20:52:30.121Z,51.20
2018-07-07T20:57:33.713Z,51.50
2018-07-07T21:02:53.435Z,51.80
2018-07-07T21:07:57.055Z,52.20
2018-07-07T21:13:00.635Z,52.80
2018-07-07T21:18:04.964Z,53.40
2018-07-07T21:28:11.767Z,54.90
2018-07-07T21:33:15.308Z,55.40
2018-07-07T21:38:18.870Z,55.80
2018-07-07T21:43:22.409Z,56.30
2018-07-07T21:48:26.082Z,57.30
2018-07-07T21:53:29.680Z,57.60
2018-07-07T21:58:33.555Z,57.70
2018-07-07T22:03:42.424Z,58.40
2018-07-07T22:08:46.033Z,59.10
2018-07-07T22:13:49.880Z,60.00
2018-07-07T22:18:53.473Z,60.20
2018-07-07T22:23:57.101Z,60.80
2018-07-07T22:29:00.640Z,61.20
2018-07-07T22:34:04.368Z,61.20
2018-07-07T22:39:08.096Z,62.20
2018-07-07T22:44:11.773Z,62.60
2018-07-07T22:49:15.808Z,63.30
2018-07-07T22:54:22.628Z,63.20
2018-07-07T22:59:26.396Z,62.70
2018-07-07T23:04:30.474Z,63.10
2018-07-07T23:09:36.159Z,63.80
2018-07-07T23:14:39.884Z,63.90
2018-07-07T23:19:43.520Z,63.70
2018-07-07T23:24:47.422Z,63.90
2018-07-07T23:29:51.131Z,64.20
2018-07-07T23:34:54.867Z,64.50
2018-07-07T23:39:58.459Z,64.60
2018-07-07T23:45:02.208Z,64.90
2018-07-07T23:50:06.688Z,65.20
2018-07-07T23:55:10.636Z,65.40
